Time;durP1;ratioP1;P1;durP2;ratioP2;P2;SDS_P1;SDS_P2;PMS_P1;PMS_P2;Temp;Humidity;BMP_temperature;BMP_pressure;BME280_temperature;BME280_humidity;BME280_pressure;Samples;Min_cycle;Max_cycle;Signal;HPM_P1;HPM_P2
2021/08/28 00:00:59;;;;;;;6.25;1.92;;;14.90;94.00;;;;;;5012646;28;20037;-80
2021/08/28 00:03:24;;;;;;;7.43;2.10;;;14.90;94.10;;;;;;5012826;28;20036;-80
2021/08/28 00:05:50;;;;;;;9.98;2.30;;;14.90;94.40;;;;;;5012654;28;20038;-80
2021/08/28 00:08:17;;;;;;;6.78;2.35;;;15.00;94.20;;;;;;5013746;28;20084;-80
2021/08/28 00:10:43;;;;;;;9.27;1.90;;;15.00;94.30;;;;;;5028892;28;20553;-80
2021/08/28 00:13:08;;;;;;;9.77;2.25;;;15.00;94.30;;;;;;4996141;28;20026;-80
2021/08/28 00:15:34;;;;;;;6.07;1.70;;;15.00;94.30;;;;;;5028755;28;20442;-80
2021/08/28 00:18:00;;;;;;;12.38;2.63;;;15.00;94.30;;;;;;4996095;28;20113;-80
2021/08/28 00:20:25;;;;;;;6.85;2.20;;;15.00;94.40;;;;;;5013728;28;20410;-80
2021/08/28 00:22:51;;;;;;;7.95;2.00;;;15.00;94.40;;;;;;5013548;28;20033;-80
2021/08/28 00:25:17;;;;;;;8.55;2.10;;;15.10;94.40;;;;;;5013515;28;20037;-80
2021/08/28 00:27:43;;;;;;;5.95;1.92;;;15.00;94.40;;;;;;5028455;28;20498;-80
2021/08/28 00:30:11;;;;;;;9.10;2.13;;;15.00;94.50;;;;;;5012130;28;20121;-80
2021/08/28 00:32:37;;;;;;;10.77;2.72;;;15.00;94.50;;;;;;5013242;28;20040;-80
2021/08/28 00:35:03;;;;;;;12.77;2.47;;;15.10;94.60;;;;;;5012319;28;20495;-80
2021/08/28 00:37:29;;;;;;;10.85;2.13;;;15.10;94.60;;;;;;4995837;28;20471;-80
2021/08/28 00:39:54;;;;;;;10.23;2.50;;;15.10;94.60;;;;;;4995841;28;20037;-80
2021/08/28 00:42:20;;;;;;;11.65;2.33;;;15.10;94.70;;;;;;4995863;28;20045;-81
2021/08/28 00:44:46;;;;;;;7.22;1.90;;;15.20;94.80;;;;;;5012160;28;20022;-80
2021/08/28 00:47:18;;;;;;;8.82;2.22;;;15.20;94.80;;;;;;5013173;28;20034;-81
2021/08/28 00:49:47;;;;;;;7.57;2.55;;;15.20;94.80;;;;;;5013203;28;20613;-81
2021/08/28 00:52:12;;;;;;;9.73;2.67;;;15.20;94.80;;;;;;5012291;28;20048;-82
2021/08/28 00:54:38;;;;;;;7.10;2.45;;;15.20;94.90;;;;;;5013241;28;20452;-80
2021/08/28 00:57:08;;;;;;;11.68;2.72;;;15.20;94.90;;;;;;5028331;28;20034;-82
2021/08/28 00:59:34;;;;;;;10.63;2.65;;;15.20;94.90;;;;;;5013192;28;20030;-79
2021/08/28 01:02:00;;;;;;;10.23;2.05;;;15.30;94.90;;;;;;4995647;28;20022;-80
2021/08/28 01:04:28;;;;;;;8.13;2.78;;;15.30;94.90;;;;;;5012086;28;20034;-80
2021/08/28 01:07:04;;;;;;;13.88;3.08;;;15.30;94.90;;;;;;5012072;28;20421;-82
2021/08/28 01:09:38;;;;;;;9.88;2.90;;;15.30;95.10;;;;;;5013169;28;20034;-82
2021/08/28 01:12:13;;;;;;;9.05;2.45;;;15.40;95.40;;;;;;5013511;28;20104;-80
2021/08/28 01:14:51;;;;;;;11.13;4.05;;;15.40;95.10;;;;;;5011760;28;20080;-80
2021/08/28 01:17:19;;;;;;;13.23;3.30;;;15.40;95.00;;;;;;5028197;28;20050;-80
2021/08/28 01:20:03;;;;;;;8.23;2.58;;;15.40;95.00;;;;;;5011953;28;20022;-80
2021/08/28 01:22:30;;;;;;;8.05;3.10;;;15.40;95.00;;;;;;5013124;28;20478;-80
2021/08/28 01:24:57;;;;;;;11.63;3.20;;;15.40;95.00;;;;;;5013062;28;20026;-81
2021/08/28 01:27:28;;;;;;;12.63;2.42;;;15.40;95.00;;;;;;5011787;28;20030;-80
2021/08/28 01:29:57;;;;;;;8.23;3.13;;;15.40;95.00;;;;;;5011704;28;20092;-80
2021/08/28 01:32:23;;;;;;;8.48;2.70;;;15.40;95.10;;;;;;5013000;28;20034;-79
2021/08/28 01:34:50;;;;;;;10.68;2.90;;;15.40;95.10;;;;;;4995346;28;20108;-81
2021/08/28 01:37:19;;;;;;;8.85;2.88;;;15.50;95.10;;;;;;5011532;28;20026;-80
2021/08/28 01:39:46;;;;;;;9.23;2.55;;;15.50;95.20;;;;;;5012806;28;20582;-80
2021/08/28 01:42:14;;;;;;;6.18;2.38;;;15.50;95.20;;;;;;5016359;28;20520;-80
2021/08/28 01:44:45;;;;;;;8.73;2.55;;;15.50;95.20;;;;;;5015020;28;20057;-80
2021/08/28 01:47:12;;;;;;;8.48;2.90;;;15.50;95.20;;;;;;5014936;28;20121;-77
2021/08/28 01:49:39;;;;;;;9.52;3.00;;;15.50;95.20;;;;;;5014744;28;20433;-76
2021/08/28 01:52:06;;;;;;;13.07;2.85;;;15.50;95.20;;;;;;4998696;28;20490;-76
2021/08/28 01:54:31;;;;;;;9.48;3.17;;;15.50;95.20;;;;;;5031363;28;20037;-76
2021/08/28 01:56:57;;;;;;;7.03;2.40;;;15.60;95.30;;;;;;5014752;28;20405;-77
2021/08/28 01:59:23;;;;;;;9.30;2.47;;;15.60;95.30;;;;;;5014978;28;20124;-77
2021/08/28 02:01:49;;;;;;;13.77;3.05;;;15.50;95.50;;;;;;5014778;28;20038;-77
2021/08/28 02:04:14;;;;;;;10.05;2.58;;;15.60;95.20;;;;;;5015876;28;20091;-77
2021/08/28 02:06:51;;;;;;;8.73;2.22;;;15.60;95.20;;;;;;5014842;28;20038;-77
2021/08/28 02:09:44;;;;;;;6.93;2.28;;;15.60;95.30;;;;;;5015829;28;20084;-76
2021/08/28 02:12:25;;;;;;;8.30;2.33;;;15.60;95.30;;;;;;5015846;28;20061;-77
2021/08/28 02:15:17;;;;;;;10.43;2.67;;;15.60;95.30;;;;;;5015708;28;20037;-77
2021/08/28 02:17:48;;;;;;;9.75;2.92;;;15.50;95.30;;;;;;5015177;28;20046;-77
2021/08/28 02:20:17;;;;;;;11.05;3.25;;;15.50;95.40;;;;;;5030893;28;20450;-76
2021/08/28 02:22:56;;;;;;;11.15;2.97;;;15.50;95.40;;;;;;5015723;28;20038;-77
2021/08/28 02:26:01;;;;;;;12.43;3.15;;;15.50;95.40;;;;;;5015495;28;20036;-77
2021/08/28 02:28:33;;;;;;;12.68;3.05;;;15.50;95.40;;;;;;4993584;28;20026;-77
2021/08/28 02:31:02;;;;;;;7.57;3.13;;;15.50;95.40;;;;;;5025223;28;20084;-76
2021/08/28 02:33:29;;;;;;;12.25;3.95;;;15.50;95.40;;;;;;5013982;28;20069;-77
2021/08/28 02:35:56;;;;;;;8.43;2.58;;;15.50;95.50;;;;;;5015247;28;20036;-81
2021/08/28 02:38:23;;;;;;;11.10;3.20;;;15.50;95.40;;;;;;5014052;28;20053;-80
2021/08/28 02:40:51;;;;;;;7.20;3.25;;;15.60;95.40;;;;;;5015307;28;20084;-80
2021/08/28 02:43:18;;;;;;;14.63;3.67;;;15.50;95.40;;;;;;5030524;28;20462;-80
2021/08/28 02:45:44;;;;;;;12.43;3.55;;;15.50;95.50;;;;;;5013993;28;20037;-80
2021/08/28 02:48:11;;;;;;;11.57;3.33;;;15.60;95.60;;;;;;5013862;28;20029;-81
2021/08/28 02:50:39;;;;;;;9.68;2.78;;;15.50;95.60;;;;;;4997383;28;20613;-77
2021/08/28 02:53:07;;;;;;;12.82;3.78;;;15.60;95.60;;;;;;5014946;28;20497;-76
2021/08/28 02:55:34;;;;;;;13.18;3.38;;;15.60;95.80;;;;;;5013778;28;20025;-80
2021/08/28 02:58:00;;;;;;;10.63;3.15;;;15.60;95.70;;;;;;4997460;28;20037;-80
2021/08/28 03:00:26;;;;;;;9.02;2.85;;;15.60;95.80;;;;;;5013505;28;20029;-80
2021/08/28 03:02:53;;;;;;;7.85;2.90;;;15.60;95.80;;;;;;5013606;28;20531;-80
2021/08/28 03:05:19;;;;;;;10.27;3.08;;;15.60;95.90;;;;;;5030064;28;20171;-82
2021/08/28 03:07:46;;;;;;;12.50;4.00;;;15.60;95.90;;;;;;5014788;28;20065;-79
2021/08/28 03:10:13;;;;;;;7.75;2.83;;;15.70;96.00;;;;;;5030003;28;20116;-80
2021/08/28 03:12:39;;;;;;;9.65;2.78;;;15.70;96.00;;;;;;5013494;28;20069;-80
2021/08/28 03:15:06;;;;;;;9.95;3.03;;;15.70;96.10;;;;;;5013268;28;20077;-80
2021/08/28 03:17:31;;;;;;;9.25;2.85;;;15.70;96.00;;;;;;4996870;28;20026;-81
2021/08/28 03:19:58;;;;;;;10.75;2.83;;;15.80;96.10;;;;;;5029684;28;20056;-81
2021/08/28 03:22:24;;;;;;;9.93;2.55;;;15.80;96.20;;;;;;5013406;28;20061;-83
2021/08/28 03:24:53;;;;;;;10.07;2.53;;;15.80;96.10;;;;;;5013292;28;20092;-80
2021/08/28 03:27:19;;;;;;;12.82;2.80;;;15.80;96.10;;;;;;5014387;28;20030;-81
2021/08/28 03:29:47;;;;;;;9.82;2.65;;;15.80;96.00;;;;;;5013341;28;20065;-80
2021/08/28 03:32:16;;;;;;;8.77;2.60;;;15.80;95.90;;;;;;5014324;28;20037;-80
2021/08/28 03:34:42;;;;;;;7.75;2.40;;;15.80;95.80;;;;;;5014374;28;20034;-80
2021/08/28 03:37:09;;;;;;;7.22;2.35;;;15.80;95.80;;;;;;5029379;28;20072;-80
2021/08/28 03:39:37;;;;;;;7.80;2.13;;;15.70;95.70;;;;;;5012926;28;20022;-79
2021/08/28 03:42:03;;;;;;;8.30;2.67;;;15.70;95.80;;;;;;5029349;28;20458;-80
2021/08/28 03:44:29;;;;;;;7.53;2.47;;;15.70;95.80;;;;;;5014064;28;20108;-80
2021/08/28 03:46:55;;;;;;;9.60;2.63;;;15.70;95.80;;;;;;5012976;28;20038;-80
2021/08/28 03:49:20;;;;;;;8.65;2.65;;;15.70;95.80;;;;;;5012867;28;20032;-81
2021/08/28 03:51:47;;;;;;;7.32;2.53;;;15.70;95.80;;;;;;5014026;28;20535;-82
2021/08/28 03:54:12;;;;;;;8.68;2.47;;;15.70;95.80;;;;;;4995234;28;20033;-80
2021/08/28 03:56:38;;;;;;;10.18;2.40;;;15.70;95.80;;;;;;5011215;28;20034;-82
2021/08/28 03:59:03;;;;;;;10.05;2.35;;;15.70;96.00;;;;;;5012792;28;20033;-83
2021/08/28 04:01:29;;;;;;;8.07;2.55;;;15.70;95.90;;;;;;5012698;28;20034;-82
2021/08/28 04:03:55;;;;;;;9.68;2.08;;;15.70;95.90;;;;;;5012677;28;20034;-82
2021/08/28 04:06:20;;;;;;;7.00;2.42;;;15.70;95.90;;;;;;5011738;28;20034;-81
2021/08/28 04:08:48;;;;;;;4.15;1.90;;;15.70;95.90;;;;;;5012731;28;20034;-80
2021/08/28 04:11:14;;;;;;;9.27;2.80;;;15.70;96.00;;;;;;5013705;28;20493;-82
2021/08/28 04:13:40;;;;;;;10.45;2.97;;;15.70;96.00;;;;;;5013898;28;20030;-81
2021/08/28 04:16:06;;;;;;;7.82;2.75;;;15.70;96.00;;;;;;5013487;28;20137;-82
2021/08/28 04:18:31;;;;;;;7.82;2.97;;;15.70;96.00;;;;;;5013750;28;20097;-81
2021/08/28 04:20:57;;;;;;;13.27;3.17;;;15.80;96.10;;;;;;5012419;28;20034;-81
2021/08/28 04:23:22;;;;;;;7.70;2.70;;;15.70;96.40;;;;;;5013647;28;20402;-81
2021/08/28 04:25:48;;;;;;;8.30;2.67;;;15.80;96.10;;;;;;5012332;28;20390;-83
2021/08/28 04:28:14;;;;;;;6.70;2.78;;;15.80;96.20;;;;;;5012279;28;20029;-80
2021/08/28 04:30:39;;;;;;;12.70;2.95;;;15.80;96.20;;;;;;5012332;28;20030;-81
2021/08/28 04:33:05;;;;;;;10.95;3.28;;;15.80;96.20;;;;;;4995855;28;20034;-81
2021/08/28 04:35:31;;;;;;;9.27;2.88;;;15.80;96.30;;;;;;5012166;28;20053;-80
2021/08/28 04:37:57;;;;;;;9.88;3.35;;;15.80;96.30;;;;;;4995734;28;20165;-81
2021/08/28 04:40:22;;;;;;;9.45;2.83;;;15.80;96.30;;;;;;5013393;28;20029;-77
2021/08/28 04:42:48;;;;;;;8.70;3.53;;;15.80;96.30;;;;;;4995759;28;20026;-77
2021/08/28 04:45:14;;;;;;;8.18;3.05;;;15.80;96.20;;;;;;4995648;28;20026;-78
2021/08/28 04:47:39;;;;;;;8.52;2.92;;;15.70;96.20;;;;;;4996148;28;20033;-78
2021/08/28 04:50:05;;;;;;;12.93;3.17;;;15.80;96.50;;;;;;4995775;28;20371;-78
2021/08/28 04:52:31;;;;;;;9.50;3.58;;;15.70;96.10;;;;;;5012186;28;20049;-77
2021/08/28 04:54:57;;;;;;;11.23;2.85;;;15.70;96.10;;;;;;5028364;28;20069;-78
2021/08/28 04:57:22;;;;;;;4.93;2.80;;;15.70;96.10;;;;;;5011935;28;20055;-77
2021/08/28 04:59:48;;;;;;;17.60;3.67;;;15.70;96.10;;;;;;5012134;28;20034;-78
2021/08/28 05:02:13;;;;;;;5.10;2.60;;;15.70;96.10;;;;;;4995634;28;20030;-78
2021/08/28 05:04:39;;;;;;;8.18;3.38;;;15.70;96.10;;;;;;5011939;28;20080;-77
2021/08/28 05:07:05;;;;;;;9.02;3.42;;;15.60;96.00;;;;;;5013176;28;20042;-77
2021/08/28 05:09:30;;;;;;;7.53;3.25;;;15.60;96.10;;;;;;5012034;28;20037;-78
2021/08/28 05:11:56;;;;;;;6.38;3.20;;;15.60;96.10;;;;;;5011886;28;20057;-77
2021/08/28 05:14:22;;;;;;;9.55;3.47;;;15.60;96.10;;;;;;5013461;28;20505;-77
2021/08/28 05:16:47;;;;;;;7.70;2.92;;;15.60;96.20;;;;;;5015393;28;20054;-77
2021/08/28 05:19:13;;;;;;;10.25;3.28;;;15.60;96.30;;;;;;4999313;28;20161;-78
2021/08/28 05:21:39;;;;;;;7.03;3.35;;;15.60;96.30;;;;;;5016705;28;20486;-77
2021/08/28 05:24:05;;;;;;;8.02;3.45;;;15.60;96.30;;;;;;5015540;28;20033;-78
2021/08/28 05:26:30;;;;;;;7.05;3.22;;;15.60;96.40;;;;;;4999060;28;20119;-77
2021/08/28 05:28:56;;;;;;;8.65;3.15;;;15.60;96.40;;;;;;5031862;28;20038;-79
2021/08/28 05:31:21;;;;;;;10.25;3.58;;;15.70;96.50;;;;;;5015287;28;20030;-78
2021/08/28 05:33:47;;;;;;;8.98;2.55;;;15.70;96.50;;;;;;4998785;28;20120;-77
2021/08/28 05:36:12;;;;;;;9.15;2.72;;;15.70;96.50;;;;;;5015343;28;20045;-78
2021/08/28 05:38:38;;;;;;;10.32;3.45;;;15.80;96.70;;;;;;4998747;28;20474;-78
2021/08/28 05:41:04;;;;;;;8.32;2.85;;;15.80;96.50;;;;;;4998766;28;20421;-76
2021/08/28 05:43:29;;;;;;;10.05;3.08;;;15.80;96.40;;;;;;4999490;28;20037;-81
2021/08/28 05:45:55;;;;;;;10.40;2.92;;;15.80;96.50;;;;;;5032882;28;20112;-82
2021/08/28 05:48:22;;;;;;;13.02;3.40;;;15.80;96.50;;;;;;5022244;28;20017;-80
2021/08/28 05:50:48;;;;;;;11.07;2.78;;;15.90;96.40;;;;;;5026193;28;20035;-80
2021/08/28 05:53:13;;;;;;;10.70;3.47;;;15.90;96.40;;;;;;5021001;28;20104;-82
2021/08/28 05:55:39;;;;;;;9.52;3.30;;;15.90;96.40;;;;;;4992245;28;20030;-83
2021/08/28 05:58:05;;;;;;;9.20;3.15;;;15.80;96.40;;;;;;4999567;28;20084;-84
2021/08/28 06:00:30;;;;;;;7.15;3.10;;;15.90;96.50;;;;;;5014348;28;20069;-81
2021/08/28 06:02:56;;;;;;;8.70;3.33;;;15.90;96.50;;;;;;5010483;28;20029;-81
2021/08/28 06:05:22;;;;;;;8.73;3.08;;;15.90;96.50;;;;;;5010945;28;20083;-78
2021/08/28 06:07:47;;;;;;;9.80;3.25;;;16.00;96.50;;;;;;4996909;28;20466;-78
2021/08/28 06:10:13;;;;;;;7.80;3.75;;;16.10;96.60;;;;;;5009582;28;20522;-78
2021/08/28 06:12:39;;;;;;;8.90;3.10;;;16.10;96.60;;;;;;4996472;28;20413;-78
2021/08/28 06:15:05;;;;;;;8.13;3.40;;;16.20;96.60;;;;;;5013947;28;20034;-77
2021/08/28 06:17:32;;;;;;;6.85;3.35;;;16.30;96.60;;;;;;5013129;28;20405;-75
2021/08/28 06:19:57;;;;;;;7.88;3.28;;;16.30;96.50;;;;;;5014184;28;20568;-77
2021/08/28 06:22:23;;;;;;;10.40;3.65;;;16.30;96.40;;;;;;5013878;28;20053;-77
2021/08/28 06:24:49;;;;;;;8.63;2.63;;;16.30;96.60;;;;;;5013571;28;20037;-76
2021/08/28 06:27:14;;;;;;;9.93;3.42;;;16.40;96.30;;;;;;4996541;28;20374;-77
2021/08/28 06:29:40;;;;;;;10.63;2.88;;;16.50;96.30;;;;;;5013581;28;20038;-77
2021/08/28 06:32:06;;;;;;;6.43;2.72;;;16.50;96.30;;;;;;4981184;28;20528;-77
2021/08/28 06:34:32;;;;;;;10.35;3.83;;;16.60;96.20;;;;;;5014786;28;20424;-75
2021/08/28 06:36:57;;;;;;;11.52;3.40;;;16.60;96.00;;;;;;5013467;28;20445;-76
2021/08/28 06:39:23;;;;;;;7.03;2.80;;;16.60;95.90;;;;;;5005309;28;20129;-74
2021/08/28 06:41:49;;;;;;;10.18;3.53;;;16.70;95.90;;;;;;5005370;28;20021;-75
2021/08/28 06:44:16;;;;;;;6.30;2.50;;;16.70;95.90;;;;;;5013516;28;20080;-76
2021/08/28 06:46:42;;;;;;;6.38;2.60;;;16.70;95.90;;;;;;5004030;28;20085;-76
2021/08/28 06:49:08;;;;;;;7.63;3.05;;;16.70;95.90;;;;;;5014586;28;20034;-76
2021/08/28 06:51:34;;;;;;;6.35;2.90;;;16.70;95.90;;;;;;4996935;28;20128;-76
2021/08/28 06:54:00;;;;;;;6.82;2.97;;;16.80;95.90;;;;;;5013181;28;20026;-75
2021/08/28 06:56:25;;;;;;;8.60;2.97;;;16.90;95.80;;;;;;5013480;28;20037;-76
2021/08/28 06:58:51;;;;;;;9.40;2.67;;;16.90;95.80;;;;;;5030240;28;20025;-76
2021/08/28 07:01:17;;;;;;;6.85;3.40;;;16.90;95.70;;;;;;5030035;28;20022;-75
2021/08/28 07:03:42;;;;;;;8.07;3.20;;;16.90;95.60;;;;;;5014153;28;20115;-76
2021/08/28 07:06:08;;;;;;;8.35;2.95;;;17.00;95.60;;;;;;5013178;28;20025;-75
2021/08/28 07:08:34;;;;;;;9.27;3.55;;;16.90;95.50;;;;;;4997104;28;20026;-81
2021/08/28 07:10:59;;;;;;;7.25;3.13;;;16.90;95.50;;;;;;5013582;28;20033;-80
2021/08/28 07:13:26;;;;;;;9.90;3.47;;;16.90;95.60;;;;;;5014457;28;20034;-83
2021/08/28 07:15:52;;;;;;;6.88;3.13;;;17.00;95.60;;;;;;5013686;28;20450;-82
2021/08/28 07:18:18;;;;;;;12.23;3.97;;;17.10;95.70;;;;;;5013015;28;20037;-82
2021/08/28 07:20:44;;;;;;;7.60;3.58;;;17.20;95.70;;;;;;5029355;28;20022;-81
2021/08/28 07:23:10;;;;;;;8.57;2.88;;;17.20;95.70;;;;;;5014000;28;20018;-83
2021/08/28 07:25:37;;;;;;;9.98;3.85;;;17.30;95.60;;;;;;5009919;28;20533;-80
2021/08/28 07:28:11;;;;;;;9.93;4.00;;;17.30;95.80;;;;;;5013712;28;20030;-81
2021/08/28 07:30:38;;;;;;;10.15;3.97;;;17.40;95.50;;;;;;5009049;28;20363;-82
2021/08/28 07:33:04;;;;;;;11.25;3.50;;;17.40;95.40;;;;;;5013188;28;20029;-81
2021/08/28 07:35:30;;;;;;;7.22;3.75;;;17.50;95.30;;;;;;5029445;28;20084;-81
2021/08/28 07:37:56;;;;;;;7.68;3.70;;;17.50;95.20;;;;;;5013248;28;20556;-80
2021/08/28 07:40:23;;;;;;;10.13;3.65;;;17.60;95.20;;;;;;4999119;28;20030;-80
2021/08/28 07:42:54;;;;;;;7.85;3.20;;;17.70;95.20;;;;;;5012965;28;20037;-83
2021/08/28 07:45:20;;;;;;;6.65;2.83;;;17.70;95.00;;;;;;5014047;28;20052;-80
2021/08/28 07:47:45;;;;;;;9.15;3.53;;;17.70;95.10;;;;;;5012683;28;20037;-80
2021/08/28 07:50:11;;;;;;;15.15;3.78;;;17.80;94.60;;;;;;5013895;28;20030;-82
2021/08/28 07:52:40;;;;;;;9.00;3.92;;;17.80;94.60;;;;;;5013934;28;20382;-86
2021/08/28 07:55:07;;;;;;;8.68;3.28;;;17.80;94.40;;;;;;5014360;28;20022;-80
2021/08/28 07:57:32;;;;;;;7.82;3.58;;;17.80;94.40;;;;;;5012505;28;20057;-80
2021/08/28 07:59:58;;;;;;;10.30;4.18;;;17.80;94.40;;;;;;5013810;28;20041;-80
2021/08/28 08:02:24;;;;;;;8.57;3.75;;;17.90;94.20;;;;;;5013811;28;20021;-82
2021/08/28 08:04:49;;;;;;;10.25;3.90;;;17.90;94.10;;;;;;5012564;28;20030;-81
2021/08/28 08:07:15;;;;;;;10.68;3.72;;;17.90;94.10;;;;;;5012427;28;20042;-81
2021/08/28 08:09:41;;;;;;;10.15;4.00;;;18.00;93.90;;;;;;5012438;28;20034;-81
2021/08/28 08:12:07;;;;;;;9.93;4.32;;;18.00;94.10;;;;;;4979888;28;20034;-83
2021/08/28 08:14:32;;;;;;;8.95;3.22;;;18.10;93.70;;;;;;5013758;28;20088;-79
2021/08/28 08:16:58;;;;;;;8.77;3.67;;;18.20;93.70;;;;;;5012360;28;20113;-82
2021/08/28 08:19:23;;;;;;;12.02;4.15;;;18.20;93.90;;;;;;4995875;28;20363;-82
2021/08/28 08:21:49;;;;;;;8.35;3.33;;;18.20;93.50;;;;;;5013531;28;20025;-83
2021/08/28 08:24:15;;;;;;;8.88;3.63;;;18.40;93.50;;;;;;5013709;28;20132;-85
2021/08/28 08:26:40;;;;;;;7.97;3.33;;;18.40;93.20;;;;;;4996111;28;20029;-82
2021/08/28 08:29:06;;;;;;;7.57;3.67;;;18.50;93.10;;;;;;4996021;28;20037;-81
2021/08/28 08:31:32;;;;;;;8.15;3.50;;;18.60;93.00;;;;;;5012163;28;20026;-82
2021/08/28 08:33:57;;;;;;;8.00;3.38;;;18.60;92.70;;;;;;4995914;28;20024;-82
2021/08/28 08:36:23;;;;;;;9.57;4.47;;;18.70;92.70;;;;;;5012077;28;20030;-81
2021/08/28 08:38:49;;;;;;;7.50;3.05;;;18.80;92.40;;;;;;4996070;28;20026;-82
2021/08/28 08:41:16;;;;;;;8.60;3.20;;;18.90;92.30;;;;;;5013236;28;20030;-78
2021/08/28 08:43:42;;;;;;;8.05;3.45;;;19.10;92.20;;;;;;5012132;28;20029;-78
2021/08/28 08:46:08;;;;;;;8.35;3.75;;;19.20;91.70;;;;;;5012124;28;20576;-75
2021/08/28 08:48:35;;;;;;;8.63;3.65;;;19.30;91.00;;;;;;5013979;28;20116;-76
2021/08/28 08:51:02;;;;;;;10.43;3.95;;;19.30;90.80;;;;;;5017355;28;20038;-77
2021/08/28 08:53:30;;;;;;;12.30;3.55;;;19.30;90.30;;;;;;5015833;28;20040;-76
2021/08/28 08:55:57;;;;;;;7.70;3.15;;;19.40;90.20;;;;;;4999586;28;20026;-76
2021/08/28 08:58:23;;;;;;;7.90;3.80;;;19.40;90.10;;;;;;5015880;28;20026;-77
2021/08/28 09:00:49;;;;;;;7.05;3.53;;;19.40;89.70;;;;;;5015885;28;20382;-77
2021/08/28 09:03:15;;;;;;;8.93;3.67;;;19.50;89.50;;;;;;4999474;28;20026;-75
2021/08/28 09:05:40;;;;;;;8.90;3.72;;;19.50;88.90;;;;;;5015748;28;20040;-75
2021/08/28 09:08:06;;;;;;;6.72;3.80;;;19.50;88.30;;;;;;5017066;28;20050;-77
2021/08/28 09:10:32;;;;;;;7.53;3.70;;;19.50;87.70;;;;;;5015651;28;20037;-76
2021/08/28 09:13:22;;;;;;;7.22;3.40;;;19.50;86.70;;;;;;4999286;28;20030;-78
2021/08/28 09:16:02;;;;;;;7.65;3.15;;;19.70;86.20;;;;;;5015571;28;20050;-77
2021/08/28 09:18:47;;;;;;;6.88;3.45;;;19.70;85.90;;;;;;5015521;28;20120;-76
2021/08/28 09:21:13;;;;;;;5.72;2.75;;;19.70;85.80;;;;;;5015495;28;20029;-79
2021/08/28 09:23:39;;;;;;;8.18;3.58;;;19.90;85.60;;;;;;5015487;28;20030;-76
2021/08/28 09:26:27;;;;;;;7.50;3.38;;;20.00;85.20;;;;;;4999269;28;20360;-76
2021/08/28 09:28:55;;;;;;;9.25;3.28;;;20.00;83.30;;;;;;5016656;28;20029;-78
2021/08/28 09:31:43;;;;;;;7.43;3.20;;;20.10;82.50;;;;;;5015415;28;20033;-76
2021/08/28 09:34:24;;;;;;;6.82;2.80;;;20.20;82.90;;;;;;5016309;28;20098;-77
2021/08/28 09:37:01;;;;;;;6.85;3.63;;;20.20;81.70;;;;;;5031916;28;20096;-76
2021/08/28 09:39:45;;;;;;;8.50;3.75;;;20.20;81.60;;;;;;5008739;28;20471;-77
2021/08/28 09:42:17;;;;;;;6.07;3.28;;;20.20;81.40;;;;;;5001301;28;20096;-77
2021/08/28 09:44:45;;;;;;;8.83;3.30;;;20.20;81.20;;;;;;5013248;28;20026;-76
2021/08/28 09:47:16;;;;;;;5.47;2.70;;;20.20;81.10;;;;;;4994788;28;20076;-74
2021/08/28 09:49:50;;;;;;;7.38;4.22;;;20.20;81.00;;;;;;5015241;28;20025;-76
2021/08/28 09:52:21;;;;;;;7.72;3.20;;;20.30;80.00;;;;;;5017287;28;20087;-76
2021/08/28 09:54:46;;;;;;;7.07;3.33;;;20.30;79.20;;;;;;5016466;28;20412;-76
2021/08/28 09:57:12;;;;;;;7.47;3.30;;;20.40;79.70;;;;;;5029402;28;20022;-74
2021/08/28 09:59:47;;;;;;;8.18;3.33;;;20.40;79.50;;;;;;5017063;28;20128;-76
2021/08/28 10:02:15;;;;;;;6.18;2.70;;;20.50;79.50;;;;;;5034663;28;20026;-75
2021/08/28 10:04:55;;;;;;;10.50;2.78;;;20.60;79.40;;;;;;5015530;28;20346;-74
2021/08/28 10:07:31;;;;;;;7.05;3.08;;;20.70;79.00;;;;;;5014829;28;20105;-77
2021/08/28 10:09:58;;;;;;;8.50;2.88;;;20.90;78.00;;;;;;5014448;28;20034;-76
2021/08/28 10:12:25;;;;;;;5.95;2.60;;;21.10;77.70;;;;;;5013949;28;20022;-76
2021/08/28 10:14:55;;;;;;;5.30;2.10;;;21.30;77.70;;;;;;5014220;28;20121;-74
2021/08/28 10:17:24;;;;;;;7.65;2.95;;;21.50;77.30;;;;;;5015416;28;20080;-76
2021/08/28 10:19:52;;;;;;;6.10;2.53;;;21.60;75.90;;;;;;5015450;28;20160;-76
2021/08/28 10:22:28;;;;;;;4.40;2.00;;;21.70;74.60;;;;;;5014038;28;20025;-76
2021/08/28 10:24:57;;;;;;;5.60;1.98;;;21.70;73.70;;;;;;5015465;28;20026;-75
2021/08/28 10:27:27;;;;;;;5.25;2.13;;;21.90;73.70;;;;;;5015555;28;20030;-75
2021/08/28 10:29:53;;;;;;;4.47;2.15;;;22.10;72.60;;;;;;5015468;28;20393;-76
2021/08/28 10:32:20;;;;;;;4.03;1.77;;;22.20;71.60;;;;;;5014135;28;20104;-76
2021/08/28 10:34:47;;;;;;;4.10;1.42;;;22.40;70.60;;;;;;5019054;28;20026;-76
2021/08/28 10:37:13;;;;;;;6.22;1.80;;;22.50;69.80;;;;;;5014040;28;20037;-75
2021/08/28 10:39:40;;;;;;;5.70;1.83;;;22.50;68.90;;;;;;5014515;28;20034;-76
2021/08/28 10:42:08;;;;;;;4.25;1.60;;;22.50;67.00;;;;;;5014677;28;20033;-76
2021/08/28 10:44:34;;;;;;;4.85;1.98;;;22.40;67.30;;;;;;5015037;28;20018;-76
2021/08/28 10:47:14;;;;;;;5.38;1.90;;;22.40;67.00;;;;;;4997490;28;20524;-76
2021/08/28 10:49:45;;;;;;;4.75;2.00;;;22.40;67.20;;;;;;4997407;28;20029;-76
2021/08/28 10:52:19;;;;;;;5.40;2.40;;;22.30;66.30;;;;;;5014551;28;20486;-75
2021/08/28 10:55:04;;;;;;;4.82;1.42;;;22.30;66.20;;;;;;5014607;28;20022;-76
2021/08/28 10:57:30;;;;;;;3.92;1.88;;;22.30;66.40;;;;;;5014706;28;20049;-76
2021/08/28 11:00:05;;;;;;;5.20;2.17;;;22.30;66.60;;;;;;5012676;28;20060;-76
2021/08/28 11:02:54;;;;;;;4.35;1.88;;;22.30;65.90;;;;;;5014804;28;20026;-76
2021/08/28 11:05:23;;;;;;;3.88;1.77;;;22.20;65.00;;;;;;5029855;28;20018;-76
2021/08/28 11:07:50;;;;;;;5.47;1.63;;;22.20;65.10;;;;;;5014782;28;20026;-76
2021/08/28 11:10:18;;;;;;;4.60;1.60;;;22.30;65.60;;;;;;5013365;28;20116;-76
2021/08/28 11:13:01;;;;;;;5.22;1.77;;;22.50;66.10;;;;;;5014691;28;20405;-75
2021/08/28 11:15:30;;;;;;;3.15;1.40;;;22.80;66.00;;;;;;5014060;28;20049;-76
2021/08/28 11:18:01;;;;;;;4.10;1.45;;;23.10;66.10;;;;;;5013059;28;20172;-77
2021/08/28 11:20:51;;;;;;;4.57;1.85;;;23.80;65.50;;;;;;5019868;28;20024;-77
2021/08/28 11:23:21;;;;;;;4.82;1.52;;;24.40;63.40;;;;;;4990082;28;20381;-76
2021/08/28 11:25:49;;;;;;;3.13;1.38;;;25.00;62.50;;;;;;5012511;28;20026;-78
2021/08/28 11:28:18;;;;;;;4.13;1.40;;;25.70;61.50;;;;;;5010393;28;20054;-76
2021/08/28 11:30:44;;;;;;;3.20;1.17;;;26.20;59.00;;;;;;5014288;28;20026;-76
2021/08/28 11:33:20;;;;;;;4.72;1.45;;;26.50;56.90;;;;;;5003921;28;20041;-76
2021/08/28 11:36:17;;;;;;;5.63;2.03;;;26.40;55.40;;;;;;5013394;28;20034;-75
2021/08/28 11:38:49;;;;;;;5.35;1.48;;;26.20;54.80;;;;;;4991652;28;20042;-78
2021/08/28 11:41:22;;;;;;;3.70;1.60;;;25.80;54.70;;;;;;5008926;28;20094;-79
2021/08/28 11:43:49;;;;;;;5.57;1.48;;;25.50;55.50;;;;;;5002598;28;20486;-76
2021/08/28 11:46:18;;;;;;;4.75;1.45;;;25.50;56.60;;;;;;5013118;28;20038;-77
2021/08/28 11:48:46;;;;;;;4.38;1.52;;;25.60;57.20;;;;;;5012620;28;20080;-75
2021/08/28 11:51:18;;;;;;;5.40;1.42;;;25.70;57.40;;;;;;5029320;28;20026;-79
2021/08/28 11:53:46;;;;;;;3.92;1.25;;;25.80;57.40;;;;;;5013590;28;20417;-76
2021/08/28 11:56:15;;;;;;;5.72;1.48;;;25.80;57.30;;;;;;4996597;28;20088;-74
2021/08/28 11:59:07;;;;;;;3.97;1.80;;;25.80;57.30;;;;;;5012889;28;20022;-76
2021/08/28 12:01:42;;;;;;;4.75;1.52;;;25.70;56.30;;;;;;5010854;28;20034;-77
2021/08/28 12:04:10;;;;;;;4.68;1.38;;;25.60;55.80;;;;;;4996964;28;20034;-77
2021/08/28 12:06:38;;;;;;;5.25;1.60;;;25.60;56.00;;;;;;5013926;28;20819;-76
2021/08/28 12:09:06;;;;;;;4.25;1.30;;;25.50;55.70;;;;;;5014273;28;20096;-76
2021/08/28 12:11:33;;;;;;;3.38;1.23;;;25.60;55.80;;;;;;5029511;28;20033;-76
2021/08/28 12:14:01;;;;;;;4.53;1.42;;;25.70;56.00;;;;;;5014187;28;20358;-76
2021/08/28 12:16:33;;;;;;;3.97;1.30;;;25.70;56.20;;;;;;5012496;28;20107;-77
2021/08/28 12:19:09;;;;;;;4.40;1.17;;;25.70;56.10;;;;;;5013538;28;20026;-76
2021/08/28 12:21:38;;;;;;;6.07;1.30;;;25.60;56.20;;;;;;5025127;28;20026;-72
2021/08/28 12:24:25;;;;;;;4.25;1.10;;;25.50;56.50;;;;;;5025021;28;20074;-79
2021/08/28 12:26:58;;;;;;;4.55;1.20;;;25.60;56.50;;;;;;5017275;28;20036;-75
2021/08/28 12:29:25;;;;;;;5.07;1.42;;;25.60;56.50;;;;;;5014486;28;20033;-78
2021/08/28 12:32:04;;;;;;;6.75;1.27;;;25.50;56.30;;;;;;5012102;28;20053;-76
2021/08/28 12:34:31;;;;;;;5.30;1.30;;;25.40;56.40;;;;;;5013627;28;20065;-76
2021/08/28 12:37:05;;;;;;;8.95;1.40;;;25.20;56.50;;;;;;5003420;28;20018;-78
2021/08/28 12:39:30;;;;;;;;;;;25.10;56.90;;;;;;5013962;28;20080;-79
2021/08/28 12:41:57;;;;;;;4.20;0.88;;;24.90;57.20;;;;;;5011810;28;20282;-77
2021/08/28 12:44:30;;;;;;;3.58;1.08;;;24.80;57.50;;;;;;5012093;28;20026;-76
2021/08/28 12:46:57;;;;;;;3.63;1.10;;;24.70;57.70;;;;;;4987429;28;20042;-77
2021/08/28 12:49:25;;;;;;;5.82;1.40;;;24.60;58.00;;;;;;5013153;28;20092;-76
2021/08/28 12:52:05;;;;;;;5.63;1.20;;;24.80;58.30;;;;;;5012409;28;20026;-76